vuelo de bajo nivel

           

VUELOS DE BAJO NIVEL DESDE SUPERFICIE HASTA 24,000 PIES.

 

  VALIDO DESDE 141200Z ...………………………HASTA 150000ZSALIDA  Y  PUESTA  DEL  SOL  06:24/18:56SANTO DOMINGO FIR...PORT-AU-PRINCE FIRSCT025 SCT060. ISOL SHRA. OTLK...VFR SHRA..ICE AND FRZLVL...NO SGFNT ICE EXP OUTSIDE CNVTV ACT. FRZLVL... SRN CARIB (W OF 86W)...145 TO 155. CARIB... (S OF 20N)...145 NE TO 165 SW. WRN ATLC (N OF 20N)...090 NE TO 155 SW... TURB... NO SGFNT TURB EXP OUTSIDE CNVTV ACT. 

 

5,000 FT.

10,000 FT.

18,000 FT.

24,000 FT.

MDSD

3015KT+15ºC

2715KT+08ºC

3215KT-06ºC

2945KT-18ºC

MTPP

       0205KT+15ºC

3610KT+08ºC

       3130KT-06ºC

       2840KT-18ºC

TJSJ

2720KT+14ºC

        2625KT+08ºC

2840KT-07ºC

2825KT-18ºC


TAF MDPP
141000Z 1412/1512 00000KT 9999 SCT016 BECMG 1413/1415 36012KT=

TAF MDST 141000Z 1412/1512 00000KT 9999 FEW020 SCT300 BECMG 1416/1418 12005KT=  

TAF MDPC 141000Z 1412/1512 00000KT 9999 FEW018 SCT300 PROB30 1412/1416 8000 –RA SCT016 BKN300=

TAF MDBH 141000Z 1412/1512 04012KT 9999 FEW016 SCT300 BECMG 1416/1418 13010KT =

TAF MDJB 141000Z 1412/1512 00000KT 9999 FEW016 SCT300 BECMG 1414/1416 36005KT=

TAF MDSD 141000Z 1412/1512 02004KT 9999 FEW018 SCT300 BECMG 1415/1417 24007KT=

TAF MDLR 141000Z 1412/1512 00000KT 9999 FEW016 SCT300 BECMG 1414/1416 13008KT=

TAF MDCY 141000Z 1412/1512 00000KT 9999 FEW016 SCT300=

TAF KMIA 140830Z 1409/1512 VRB04KT P6SM SKC FM141500 10015KT P6SM FEW040 FM150500 VRB05KT P6SM SKC=

TAF KJFK 140830Z 1409/1512 22010KT P6SM FEW080 SCT250 FM141100 23007KT P6SM FEW080 SCT250 FM141600 21009KT P6SM SCT060 BKN250 FM141900 18011KT P6SM VCSH BKN060
FM150100 14006KT P6SM VCSH OVC020 FM150400 13008KT 4SM -RA BR OVC008=

TAF TJSJ 140533Z 1406/1506 VRB05KT P6SM FEW025 SCT060 FM141400 33010KT P6SM SCT030 SCT250 FM142300 VRB04KT P6SM FEW025=

TAF MUHA 140500Z 1406/1506 09008KT 9000 FEW030 BECMG 1421/1423 06015KT BECMG 1501/1503 09005KT=

TAF MUGM 1407/1507 34006KT 9999 FEW030 SCT280 QNH2990INS FM141700 12018G28KT 9999 FEW030 QNH2987INS BECMG 1421/1423 03015KT 9999 FEW030 QNH2994INS FM150300 01008KT 9999 FEW030 QNH2993INS T22/1411Z T32/1418Z FN00216=

TAF TNCC 140515Z 1406/1506 09012KT 9999 SCT020 PROB30 TEMPO 1406/1416 7000 SHRA BKN014=

TAF MKJP 140515Z 1406/1506 34005KT 9999 FEW020 BECMG 1416/1418 15012KT SCT034 BECMG 1504/1506 36005KT=

 

PREPARADO POR BILLY DE LA CRUZ. 14 ABRIL DEL 2021.